Time;durP1;ratioP1;P1;durP2;ratioP2;P2;SDS_P1;SDS_P2;PMS_P1;PMS_P2;Temp;Humidity;BMP_temperature;BMP_pressure;BME280_temperature;BME280_humidity;BME280_pressure;Samples;Min_cycle;Max_cycle;Signal;HPM_P1;HPM_P2
2022/07/19 00:00:19;;;;;;;8.38;5.57;;;;;;;21.16;64.78;101742.84;5092230;28;20429;-73
2022/07/19 00:02:44;;;;;;;13.40;5.55;;;;;;;21.04;65.34;101748.78;5092230;28;20025;-73
2022/07/19 00:05:11;;;;;;;8.30;5.20;;;;;;;21.02;64.54;101743.56;5091831;28;20039;-73
2022/07/19 00:07:36;;;;;;;9.93;5.43;;;;;;;20.94;65.70;101735.16;5091085;28;20028;-74
2022/07/19 00:10:04;;;;;;;7.72;5.05;;;;;;;20.94;65.24;101731.66;5090202;28;20807;-73
2022/07/19 00:12:29;;;;;;;9.93;5.03;;;;;;;20.93;66.29;101727.31;5092566;28;20451;-73
2022/07/19 00:14:55;;;;;;;6.47;4.80;;;;;;;20.90;65.42;101728.31;5088508;28;20055;-73
2022/07/19 00:17:20;;;;;;;6.88;5.20;;;;;;;20.86;65.46;101724.09;5091377;28;20481;-73
2022/07/19 00:19:45;;;;;;;7.80;5.30;;;;;;;20.85;65.07;101725.03;5092009;28;20040;-74
2022/07/19 00:22:11;;;;;;;6.65;4.65;;;;;;;20.75;65.40;101719.38;5088662;28;20073;-73
2022/07/19 00:24:36;;;;;;;8.40;4.95;;;;;;;20.77;65.61;101725.44;5090196;28;20044;-73
2022/07/19 00:27:01;;;;;;;6.43;4.93;;;;;;;20.78;65.10;101721.84;5092848;28;20062;-73
2022/07/19 00:29:26;;;;;;;8.85;5.50;;;;;;;20.69;65.11;101710.88;5091642;28;20028;-73
2022/07/19 00:31:52;;;;;;;8.10;4.97;;;;;;;20.71;65.02;101709.03;5092781;28;20132;-74
2022/07/19 00:34:17;;;;;;;6.75;5.38;;;;;;;20.71;65.04;101709.03;5088859;28;20024;-73
2022/07/19 00:36:42;;;;;;;7.80;4.72;;;;;;;20.68;65.39;101711.81;5090003;28;20489;-73
2022/07/19 00:39:07;;;;;;;7.38;5.13;;;;;;;20.65;64.85;101718.13;5090711;28;20039;-73
2022/07/19 00:41:42;;;;;;;10.90;5.45;;;;;;;20.58;64.26;101707.00;5092671;28;20554;-73
2022/07/19 00:44:09;;;;;;;7.45;4.72;;;;;;;20.60;64.74;101714.88;5092173;28;20039;-73
2022/07/19 00:46:35;;;;;;;6.68;4.70;;;;;;;20.53;64.14;101709.00;5091938;28;20016;-74
2022/07/19 00:49:01;;;;;;;8.48;4.65;;;;;;;20.51;64.17;101704.75;5091142;28;20103;-73
2022/07/19 00:51:28;;;;;;;8.68;5.15;;;;;;;20.48;63.53;101708.38;5087948;28;20527;-74
2022/07/19 00:53:55;;;;;;;6.57;4.93;;;;;;;20.43;64.16;101704.25;5091301;28;20039;-73
2022/07/19 00:56:21;;;;;;;6.75;4.80;;;;;;;20.43;64.90;101712.19;5093845;28;20074;-73
2022/07/19 00:58:49;;;;;;;7.88;5.28;;;;;;;20.40;64.14;101704.41;5104216;27;20036;-73
2022/07/19 01:01:15;;;;;;;8.77;4.75;;;;;;;20.34;64.01;101703.78;5099337;28;20028;-74
2022/07/19 01:03:40;;;;;;;5.90;4.40;;;;;;;20.38;63.99;101708.94;5099876;28;21291;-74
2022/07/19 01:06:08;;;;;;;9.68;4.80;;;;;;;20.27;63.25;101710.34;5102138;27;20027;-73
2022/07/19 01:08:35;;;;;;;7.38;4.63;;;;;;;20.23;63.24;101708.75;5095734;28;20357;-73
2022/07/19 01:11:03;;;;;;;7.50;4.40;;;;;;;20.25;64.13;101709.53;5104942;28;20042;-74
2022/07/19 01:13:29;;;;;;;8.02;4.75;;;;;;;20.20;63.63;101710.69;5107107;28;20561;-73
2022/07/19 01:15:54;;;;;;;10.70;4.82;;;;;;;20.22;63.64;101709.69;5096977;28;20024;-73
2022/07/19 01:18:20;;;;;;;6.65;4.93;;;;;;;20.16;63.45;101709.16;5108373;28;20039;-73
2022/07/19 01:20:45;;;;;;;8.20;4.63;;;;;;;20.15;64.03;101702.16;5089742;28;20093;-73
2022/07/19 01:23:10;;;;;;;7.18;4.80;;;;;;;20.12;63.66;101700.50;5105429;28;20016;-73
2022/07/19 01:25:37;;;;;;;6.35;5.43;;;;;;;20.13;64.37;101709.31;5087818;28;20028;-73
2022/07/19 01:28:06;;;;;;;10.20;5.25;;;;;;;20.05;63.76;101705.25;5105055;28;20036;-74
2022/07/19 01:30:33;;;;;;;8.27;4.95;;;;;;;20.02;64.65;101708.03;5093684;28;20149;-74
2022/07/19 01:32:59;;;;;;;11.27;5.05;;;;;;;20.00;64.67;101704.59;5103128;28;20093;-73
2022/07/19 01:35:24;;;;;;;8.25;4.82;;;;;;;19.98;64.96;101706.50;5094702;28;20463;-73
2022/07/19 01:37:51;;;;;;;9.30;5.20;;;;;;;19.97;64.96;101709.19;5094788;28;20028;-73
2022/07/19 01:40:18;;;;;;;5.85;4.82;;;;;;;19.99;65.62;101704.69;5104089;28;20475;-73
2022/07/19 01:42:45;;;;;;;8.35;5.10;;;;;;;19.97;64.72;101706.56;5111441;28;20019;-74
2022/07/19 01:45:11;;;;;;;6.68;4.65;;;;;;;19.86;65.11;101693.84;5094601;28;20488;-73
2022/07/19 01:47:37;;;;;;;6.95;4.72;;;;;;;19.92;64.38;101705.94;5100918;28;20031;-74
2022/07/19 01:50:05;;;;;;;7.57;4.78;;;;;;;19.87;64.68;101703.50;5093050;28;20024;-73
2022/07/19 01:52:30;;;;;;;8.05;4.63;;;;;;;19.86;63.83;101704.44;5111387;28;20491;-73
2022/07/19 01:54:55;;;;;;;10.13;4.55;;;;;;;19.88;63.95;101707.84;5091728;28;20119;-73
2022/07/19 01:57:21;;;;;;;7.47;4.78;;;;;;;19.83;64.76;101710.72;5107194;28;20471;-73
2022/07/19 01:59:46;;;;;;;7.60;4.75;;;;;;;19.81;64.94;101704.63;5092736;28;20043;-74
2022/07/19 02:02:11;;;;;;;8.38;4.78;;;;;;;19.74;64.41;101702.38;5089782;28;20024;-73
2022/07/19 02:04:37;;;;;;;6.57;5.13;;;;;;;19.66;64.99;101710.69;5100990;28;20059;-73
2022/07/19 02:07:02;;;;;;;9.60;4.60;;;;;;;19.64;65.54;101699.31;5111276;28;20031;-73
2022/07/19 02:09:27;;;;;;;6.32;4.70;;;;;;;19.60;65.45;101697.72;5104441;28;20079;-73
2022/07/19 02:11:53;;;;;;;6.97;4.95;;;;;;;19.61;65.25;101699.44;5100849;28;20365;-73
2022/07/19 02:14:18;;;;;;;8.07;5.25;;;;;;;19.54;65.14;101698.88;5109401;28;20482;-73
2022/07/19 02:16:44;;;;;;;7.35;5.10;;;;;;;19.46;65.42;101687.81;5101942;28;20063;-73
2022/07/19 02:19:10;;;;;;;7.78;4.63;;;;;;;19.39;66.08;101703.09;5097198;28;20076;-73
2022/07/19 02:21:36;;;;;;;8.55;4.80;;;;;;;19.39;66.35;101687.25;5102416;28;20526;-73
2022/07/19 02:24:03;;;;;;;5.35;4.80;;;;;;;19.37;67.67;101685.59;5100046;28;20066;-73
2022/07/19 02:26:28;;;;;;;8.10;4.85;;;;;;;19.34;67.91;101689.22;5096068;28;20028;-73
2022/07/19 02:28:53;;;;;;;7.53;5.25;;;;;;;19.28;67.75;101686.88;5091626;28;20020;-73
2022/07/19 02:31:19;;;;;;;7.30;5.45;;;;;;;19.29;68.67;101690.38;5099690;28;20470;-73
2022/07/19 02:33:44;;;;;;;8.63;5.13;;;;;;;19.27;68.33;101686.94;5097057;28;20024;-73
2022/07/19 02:36:10;;;;;;;7.53;5.28;;;;;;;19.25;69.13;101686.16;5094024;28;20078;-73
2022/07/19 02:38:35;;;;;;;6.13;4.80;;;;;;;19.13;69.70;101683.16;5098169;28;20031;-73
2022/07/19 02:41:00;;;;;;;6.78;5.32;;;;;;;19.15;70.24;101680.44;5097272;28;20747;-73
2022/07/19 02:43:26;;;;;;;10.05;5.20;;;;;;;19.13;69.40;101684.94;5100661;28;20031;-73
2022/07/19 02:45:51;;;;;;;8.70;5.35;;;;;;;19.12;70.03;101677.94;5100799;28;20380;-73
2022/07/19 02:48:17;;;;;;;8.60;5.15;;;;;;;19.08;69.63;101674.56;5103484;28;20032;-73
2022/07/19 02:50:42;;;;;;;7.57;5.20;;;;;;;19.03;70.21;101679.22;5092440;28;20032;-73
2022/07/19 02:53:08;;;;;;;6.72;5.70;;;;;;;19.02;70.26;101672.22;5103832;28;20545;-73
2022/07/19 02:55:33;;;;;;;7.05;4.90;;;;;;;19.02;70.11;101676.63;5094919;28;20052;-73
2022/07/19 02:57:59;;;;;;;8.85;5.00;;;;;;;18.96;69.65;101672.47;5096850;28;20032;-73
2022/07/19 03:00:24;;;;;;;7.13;4.95;;;;;;;18.94;70.58;101675.22;5099779;28;20077;-73
2022/07/19 03:02:49;;;;;;;8.18;5.10;;;;;;;18.91;70.92;101675.34;5103406;28;20126;-73
2022/07/19 03:05:15;;;;;;;7.38;5.15;;;;;;;18.90;70.28;101672.75;5097962;28;20433;-73
2022/07/19 03:07:40;;;;;;;7.22;5.28;;;;;;;18.82;70.96;101681.03;5112812;28;20052;-73
2022/07/19 03:10:06;;;;;;;10.20;5.20;;;;;;;18.81;71.09;101673.19;5093518;28;20156;-73
2022/07/19 03:12:31;;;;;;;7.93;5.30;;;;;;;18.77;71.82;101667.19;5113839;28;20041;-73
2022/07/19 03:14:57;;;;;;;8.23;5.65;;;;;;;18.73;71.74;101665.59;5091532;28;20040;-73
2022/07/19 03:17:22;;;;;;;9.10;5.68;;;;;;;18.65;71.81;101659.78;5111042;28;20131;-73
2022/07/19 03:19:47;;;;;;;9.32;5.57;;;;;;;18.66;71.64;101656.19;5093803;27;20467;-73
2022/07/19 03:22:13;;;;;;;8.55;5.75;;;;;;;18.64;71.69;101661.56;5093453;28;20028;-73
2022/07/19 03:24:38;;;;;;;9.48;6.07;;;;;;;18.59;71.51;101658.25;5097411;28;20475;-73
2022/07/19 03:27:03;;;;;;;8.63;5.78;;;;;;;18.58;71.95;101658.34;5100796;28;20383;-73
2022/07/19 03:29:29;;;;;;;10.27;6.25;;;;;;;18.58;72.49;101658.34;5097595;28;20047;-73
2022/07/19 03:31:54;;;;;;;9.00;6.13;;;;;;;18.55;72.45;101655.81;5104831;28;20379;-73
2022/07/19 03:34:19;;;;;;;7.65;6.07;;;;;;;18.53;72.41;101655.03;5104193;28;20047;-73
2022/07/19 03:36:45;;;;;;;7.53;6.50;;;;;;;18.50;71.97;101656.00;5093984;28;20089;-73
2022/07/19 03:39:10;;;;;;;8.05;6.10;;;;;;;18.40;72.37;101647.63;5095003;28;20031;-73
2022/07/19 03:41:35;;;;;;;10.70;6.82;;;;;;;18.44;72.54;101657.16;5106528;28;20035;-73
2022/07/19 03:44:01;;;;;;;8.70;6.65;;;;;;;18.44;71.91;101664.19;5101293;28;20032;-73
2022/07/19 03:46:28;;;;;;;10.90;6.95;;;;;;;18.40;72.23;101659.97;5111571;28;20023;-73
2022/07/19 03:48:53;;;;;;;9.55;6.70;;;;;;;18.41;72.66;101656.41;5101184;27;20038;-73
2022/07/19 03:51:19;;;;;;;12.30;7.05;;;;;;;18.36;72.27;101642.56;5100288;28;20020;-73
2022/07/19 03:53:45;;;;;;;11.20;7.13;;;;;;;18.43;72.66;101658.06;5110783;28;20031;-73
2022/07/19 03:56:10;;;;;;;10.07;8.20;;;;;;;18.44;72.66;101664.19;5099281;28;20040;-73
2022/07/19 03:58:36;;;;;;;12.15;7.68;;;;;;;18.42;71.86;101660.78;5107685;28;20042;-73
2022/07/19 04:01:02;;;;;;;12.95;7.90;;;;;;;18.42;72.94;101661.63;5092995;28;20455;-73
2022/07/19 04:03:27;;;;;;;12.75;7.80;;;;;;;18.40;72.39;101660.84;5100139;28;20073;-73
2022/07/19 04:05:52;;;;;;;11.52;7.43;;;;;;;18.40;72.28;101655.56;5105531;28;20032;-73
2022/07/19 04:08:18;;;;;;;11.65;8.20;;;;;;;18.43;71.87;101660.69;5097865;28;20477;-73
2022/07/19 04:10:43;;;;;;;12.82;8.00;;;;;;;18.45;71.50;101664.16;5095573;28;20051;-73
2022/07/19 04:13:08;;;;;;;10.73;8.25;;;;;;;18.46;71.32;101651.78;5099166;28;20367;-73
2022/07/19 04:15:34;;;;;;;11.52;8.02;;;;;;;18.51;71.90;101660.38;5104799;28;20031;-73
2022/07/19 04:17:59;;;;;;;11.80;8.13;;;;;;;18.52;71.92;101658.59;5108007;28;20158;-73
2022/07/19 04:20:24;;;;;;;12.82;8.20;;;;;;;18.54;72.18;101660.25;5104330;28;20044;-73
2022/07/19 04:22:50;;;;;;;11.45;7.88;;;;;;;18.57;71.15;101653.97;5094673;28;20037;-73
2022/07/19 04:25:15;;;;;;;12.50;8.50;;;;;;;18.60;71.20;101654.69;5103126;28;20104;-73
2022/07/19 04:27:41;;;;;;;16.15;8.93;;;;;;;18.58;71.22;101659.19;5093143;28;20028;-73
2022/07/19 04:30:06;;;;;;;15.02;8.93;;;;;;;18.68;71.08;101660.50;5091434;28;20031;-73
2022/07/19 04:32:33;;;;;;;10.45;8.13;;;;;;;18.72;70.90;101655.97;5092132;28;20097;-73
2022/07/19 04:34:59;;;;;;;10.00;7.72;;;;;;;18.83;71.49;101661.59;5089056;28;20036;-73
2022/07/19 04:37:24;;;;;;;15.10;8.05;;;;;;;18.87;72.13;101657.06;5097525;28;20505;-73
2022/07/19 04:39:49;;;;;;;10.63;7.32;;;;;;;18.90;70.73;101655.16;5106168;28;20023;-73
2022/07/19 04:42:15;;;;;;;12.55;8.25;;;;;;;19.01;70.87;101656.44;5093429;28;20020;-73
2022/07/19 04:44:40;;;;;;;11.75;8.23;;;;;;;19.10;71.21;101656.03;5091398;28;20059;-73
2022/07/19 04:47:05;;;;;;;10.50;7.93;;;;;;;19.18;69.71;101660.00;5100803;28;20034;-73
2022/07/19 04:49:31;;;;;;;13.93;8.98;;;;;;;19.28;71.16;101659.56;5109455;27;20386;-73
2022/07/19 04:51:56;;;;;;;11.55;8.27;;;;;;;19.39;68.72;101660.81;5106581;28;20031;-73
2022/07/19 04:54:22;;;;;;;10.90;8.38;;;;;;;19.39;70.36;101654.63;5092899;28;20178;-73
2022/07/19 04:56:47;;;;;;;14.85;8.90;;;;;;;19.47;70.28;101654.28;5103455;28;20078;-73
2022/07/19 04:59:12;;;;;;;12.80;8.60;;;;;;;19.52;70.99;101660.19;5097447;28;20483;-73
2022/07/19 05:01:38;;;;;;;15.27;8.85;;;;;;;19.56;69.38;101662.63;5090522;28;20035;-73
2022/07/19 05:04:03;;;;;;;10.55;8.27;;;;;;;19.64;69.48;101651.69;5100464;28;20023;-73
2022/07/19 05:06:29;;;;;;;14.43;9.23;;;;;;;19.72;69.92;101654.84;5109503;28;20104;-73
2022/07/19 05:08:56;;;;;;;12.30;9.05;;;;;;;19.75;69.44;101651.16;5097742;28;20051;-73
2022/07/19 05:11:21;;;;;;;13.30;8.30;;;;;;;19.81;70.69;101643.78;5106512;28;20024;-73
2022/07/19 05:13:46;;;;;;;10.73;8.48;;;;;;;19.88;69.12;101650.53;5093026;28;20105;-73
2022/07/19 05:16:12;;;;;;;16.35;10.40;;;;;;;19.98;66.78;101648.28;5098451;28;20030;-73
2022/07/19 05:18:37;;;;;;;9.30;8.30;;;;;;;20.00;68.58;101648.19;5101346;28;20372;-73
2022/07/19 05:21:02;;;;;;;13.85;9.15;;;;;;;20.13;67.51;101651.06;5096313;28;20035;-73
2022/07/19 05:23:28;;;;;;;19.83;11.05;;;;;;;20.16;66.33;101646.47;5089059;28;20372;-73
2022/07/19 05:25:53;;;;;;;13.90;9.73;;;;;;;20.24;67.06;101648.72;5099434;28;20035;-74
2022/07/19 05:28:18;;;;;;;22.50;11.15;;;;;;;20.32;65.58;101649.19;5102937;28;20023;-73
2022/07/19 05:30:44;;;;;;;18.35;9.60;;;;;;;20.41;66.40;101655.81;5108975;28;20081;-73
2022/07/19 05:33:09;;;;;;;13.60;9.20;;;;;;;20.45;66.49;101652.06;5096956;28;20024;-73
2022/07/19 05:35:34;;;;;;;13.02;10.40;;;;;;;20.56;65.46;101658.53;5112187;28;20035;-73
2022/07/19 05:38:00;;;;;;;17.83;11.18;;;;;;;20.62;65.06;101665.31;5107362;28;20024;-73
2022/07/19 05:40:25;;;;;;;16.38;11.95;;;;;;;20.68;63.90;101672.94;5111903;27;20080;-73
2022/07/19 05:42:50;;;;;;;13.30;11.00;;;;;;;20.74;65.64;101675.28;5108363;28;20114;-72
2022/07/19 05:45:15;;;;;;;13.25;11.80;;;;;;;20.83;64.55;101673.06;5111136;28;20462;-72
2022/07/19 05:47:41;;;;;;;14.95;12.02;;;;;;;20.84;63.74;101662.38;5106149;28;20032;-72
2022/07/19 05:50:06;;;;;;;18.45;12.45;;;;;;;20.95;62.97;101669.75;5098038;28;20016;-73
2022/07/19 05:52:32;;;;;;;17.77;12.88;;;;;;;21.03;61.84;101668.41;5093412;28;20046;-73
2022/07/19 05:54:57;;;;;;;18.35;13.32;;;;;;;21.13;60.64;101670.56;5100814;28;20063;-73
2022/07/19 05:57:22;;;;;;;21.63;11.70;;;;;;;21.20;60.81;101674.59;5103193;28;20035;-72
2022/07/19 05:59:48;;;;;;;23.25;11.90;;;;;;;21.27;59.40;101671.50;5098148;28;20470;-73
2022/07/19 06:02:14;;;;;;;21.17;11.73;;;;;;;21.34;60.42;101661.41;5093853;28;20023;-73
2022/07/19 06:04:39;;;;;;;19.67;11.32;;;;;;;21.45;59.35;101664.38;5111839;28;20027;-73
2022/07/19 06:07:05;;;;;;;20.55;12.05;;;;;;;21.56;58.27;101663.75;5110928;28;20024;-73
2022/07/19 06:09:30;;;;;;;24.23;11.80;;;;;;;21.64;57.42;101671.25;5108363;28;20579;-73
2022/07/19 06:11:55;;;;;;;17.02;11.07;;;;;;;21.69;57.20;101664.75;5089598;28;20055;-73
2022/07/19 06:14:21;;;;;;;19.85;11.43;;;;;;;21.82;56.26;101664.06;5108267;28;20028;-73
2022/07/19 06:16:46;;;;;;;21.98;10.50;;;;;;;21.90;55.92;101665.31;5091153;28;20127;-73
2022/07/19 06:19:11;;;;;;;22.80;11.35;;;;;;;22.00;55.13;101672.75;5097076;28;20382;-73
2022/07/19 06:21:37;;;;;;;16.73;10.93;;;;;;;22.09;54.73;101670.41;5094219;28;20081;-74
2022/07/19 06:24:03;;;;;;;18.17;10.27;;;;;;;22.17;54.10;101668.22;5107496;28;20045;-73
2022/07/19 06:26:28;;;;;;;18.60;9.77;;;;;;;22.28;53.54;101666.72;5106106;28;20107;-73
2022/07/19 06:28:55;;;;;;;17.23;9.43;;;;;;;22.36;53.47;101664.44;5102429;28;20047;-73
2022/07/19 06:31:20;;;;;;;22.73;9.35;;;;;;;22.41;53.87;101660.56;5093702;28;20027;-73
2022/07/19 06:33:47;;;;;;;17.17;8.90;;;;;;;22.57;53.53;101665.81;5106418;28;20023;-73
2022/07/19 06:36:13;;;;;;;17.98;9.27;;;;;;;22.64;53.82;101668.94;5113286;28;20111;-73
2022/07/19 06:38:38;;;;;;;17.75;9.05;;;;;;;22.75;55.53;101669.13;5115428;28;20103;-73
2022/07/19 06:41:05;;;;;;;19.13;10.45;;;;;;;22.86;57.76;101661.34;5105799;28;20026;-73
2022/07/19 06:43:30;;;;;;;16.27;8.60;;;;;;;22.92;53.04;101668.06;5106632;28;20423;-73
2022/07/19 06:45:55;;;;;;;18.58;11.73;;;;;;;23.02;51.19;101660.41;5093944;28;20078;-74
2022/07/19 06:48:21;;;;;;;17.42;9.48;;;;;;;23.10;52.56;101663.47;5093939;28;20468;-73
2022/07/19 06:50:47;;;;;;;13.00;8.27;;;;;;;23.17;51.71;101662.13;5094018;28;20107;-73
2022/07/19 06:53:12;;;;;;;17.23;8.35;;;;;;;23.28;51.02;101656.97;5093078;28;20024;-74
2022/07/19 06:55:37;;;;;;;19.80;8.05;;;;;;;23.37;50.36;101659.03;5092656;28;20083;-73
2022/07/19 06:58:03;;;;;;;16.55;8.02;;;;;;;23.45;50.61;101657.69;5093658;28;20502;-73
2022/07/19 07:00:28;;;;;;;17.15;7.40;;;;;;;23.59;51.10;101669.13;5090450;28;20033;-73
2022/07/19 07:02:53;;;;;;;24.17;8.30;;;;;;;23.71;50.34;101664.88;5093432;28;20471;-73
2022/07/19 07:05:19;;;;;;;14.48;7.47;;;;;;;23.76;50.81;101664.53;5093032;28;20475;-74
2022/07/19 07:07:44;;;;;;;20.98;7.15;;;;;;;23.88;49.12;101658.41;5087438;28;20035;-73
2022/07/19 07:10:10;;;;;;;14.82;7.20;;;;;;;24.03;50.20;101664.50;5087632;28;20031;-74
2022/07/19 07:12:36;;;;;;;15.98;7.22;;;;;;;24.13;49.58;101662.09;5090857;28;20063;-74
2022/07/19 07:15:03;;;;;;;16.92;7.28;;;;;;;24.22;48.31;101658.81;5087467;28;20023;-74
2022/07/19 07:17:28;;;;;;;19.13;7.55;;;;;;;24.28;48.24;101655.72;5085921;28;20410;-74
2022/07/19 07:19:53;;;;;;;20.88;7.38;;;;;;;24.44;47.96;101650.22;5093579;28;20025;-74
2022/07/19 07:22:18;;;;;;;15.43;6.80;;;;;;;24.57;48.65;101651.06;5093934;28;20024;-74
2022/07/19 07:24:44;;;;;;;15.63;7.22;;;;;;;24.69;48.69;101652.91;5090084;28;20054;-73
2022/07/19 07:27:09;;;;;;;14.25;6.88;;;;;;;24.81;48.22;101653.81;5094075;28;20024;-73
2022/07/19 07:29:34;;;;;;;24.92;6.47;;;;;;;24.93;49.14;101655.63;5093796;28;20020;-74
2022/07/19 07:32:00;;;;;;;13.07;5.28;;;;;;;25.05;46.85;101661.91;5092846;28;20043;-74
2022/07/19 07:34:25;;;;;;;13.02;5.40;;;;;;;25.20;44.93;101655.47;5093135;28;20055;-74
2022/07/19 07:36:50;;;;;;;10.13;5.35;;;;;;;25.33;45.88;101647.44;5093007;28;20070;-74
2022/07/19 07:39:16;;;;;;;9.00;4.70;;;;;;;25.40;44.58;101645.19;5091880;28;20341;-73
2022/07/19 07:41:41;;;;;;;9.52;4.75;;;;;;;25.42;45.94;101649.44;5088324;28;20028;-73
2022/07/19 07:44:07;;;;;;;8.95;5.32;;;;;;;25.54;44.39;101649.50;5082676;28;20462;-74
2022/07/19 07:46:32;;;;;;;15.05;5.55;;;;;;;25.62;44.01;101645.28;5091731;28;20024;-74
2022/07/19 07:48:58;;;;;;;9.23;5.40;;;;;;;25.75;43.77;101642.56;5093759;28;20065;-74
2022/07/19 07:51:24;;;;;;;12.02;4.97;;;;;;;25.86;43.76;101647.13;5090408;28;20019;-73
2022/07/19 07:53:49;;;;;;;10.98;5.50;;;;;;;25.94;42.61;101620.69;5092715;28;20016;-76
2022/07/19 07:56:15;;;;;;;9.50;5.40;;;;;;;25.99;45.38;101623.00;5086793;28;20129;-74
2022/07/19 07:58:40;;;;;;;20.42;6.07;;;;;;;26.09;43.74;101627.53;5089595;28;20486;-75
2022/07/19 08:01:05;;;;;;;7.28;4.82;;;;;;;26.18;43.48;101625.97;5092236;28;20024;-73
2022/07/19 08:03:30;;;;;;;13.57;5.10;;;;;;;26.33;46.60;101624.78;5090346;28;20020;-73
2022/07/19 08:05:57;;;;;;;12.67;5.20;;;;;;;26.36;42.53;101621.88;5097370;28;20444;-73
2022/07/19 08:08:26;;;;;;;12.18;5.35;;;;;;;26.52;42.22;101626.91;5085586;28;20859;-73
2022/07/19 08:10:52;;;;;;;10.70;5.15;;;;;;;26.60;41.44;101626.31;5095448;28;20081;-74
2022/07/19 08:13:17;;;;;;;13.70;4.68;;;;;;;26.74;41.33;101611.84;5104207;28;20432;-72
2022/07/19 08:15:42;;;;;;;10.38;4.80;;;;;;;26.89;42.11;101621.31;5104893;28;20374;-72
2022/07/19 08:18:08;;;;;;;11.43;5.17;;;;;;;27.02;40.89;101610.47;5113612;28;20039;-73
2022/07/19 08:20:33;;;;;;;16.37;5.40;;;;;;;27.16;40.16;101620.09;5112755;28;20775;-71
2022/07/19 08:22:58;;;;;;;9.40;4.97;;;;;;;27.17;40.95;101613.75;5110434;28;20274;-71
2022/07/19 08:25:23;;;;;;;8.23;4.70;;;;;;;27.30;40.15;101615.31;5100624;28;20036;-71
2022/07/19 08:27:49;;;;;;;9.52;5.05;;;;;;;27.50;40.38;101615.47;5111337;28;20284;-70
2022/07/19 08:30:15;;;;;;;11.70;5.35;;;;;;;27.67;39.49;101622.13;5113602;28;20433;-72
2022/07/19 08:32:40;;;;;;;9.18;4.57;;;;;;;27.80;39.47;101612.13;5113406;28;20023;-72
2022/07/19 08:35:08;;;;;;;8.88;4.68;;;;;;;27.97;38.03;101613.34;5085378;28;20403;-72
2022/07/19 08:37:34;;;;;;;11.05;5.20;;;;;;;28.13;40.71;101613.75;5079750;28;20037;-72
2022/07/19 08:39:59;;;;;;;13.77;5.10;;;;;;;28.17;41.00;101609.81;5107025;28;20053;-72
2022/07/19 08:42:24;;;;;;;12.73;4.82;;;;;;;28.22;37.82;101604.91;5112341;28;20024;-71
2022/07/19 08:44:54;;;;;;;7.22;5.35;;;;;;;28.39;37.65;101608.84;5112945;28;20102;-72
2022/07/19 08:47:21;;;;;;;11.00;4.60;;;;;;;28.58;36.65;101600.06;5112637;28;20032;-72
2022/07/19 08:49:48;;;;;;;14.02;5.13;;;;;;;28.80;36.87;101601.66;5112969;28;20103;-72
2022/07/19 08:52:13;;;;;;;16.08;5.03;;;;;;;28.96;38.24;101603.00;5112925;28;20062;-72
2022/07/19 08:54:39;;;;;;;9.65;4.47;;;;;;;29.01;36.47;101607.00;5111898;28;20425;-72
2022/07/19 08:59:50;;;;;;;11.45;5.32;;;;;;;29.17;35.41;101593.88;5099951;28;20042;-72
2022/07/19 09:02:15;;;;;;;13.05;5.28;;;;;;;29.27;35.01;101604.66;5110641;28;20386;-72
2022/07/19 09:04:41;;;;;;;8.57;5.00;;;;;;;29.40;35.92;101607.91;5112777;28;20481;-72
2022/07/19 09:07:07;;;;;;;8.13;4.70;;;;;;;29.52;35.58;101602.38;5112381;27;20023;-72
2022/07/19 09:09:35;;;;;;;7.72;4.72;;;;;;;29.64;36.21;101595.91;5112023;28;20489;-72
2022/07/19 09:12:02;;;;;;;8.48;4.80;;;;;;;29.79;36.33;101593.63;5112436;28;20409;-71
2022/07/19 09:14:29;;;;;;;13.88;5.10;;;;;;;29.89;36.76;101597.19;5112457;28;20026;-72
2022/07/19 09:17:03;;;;;;;8.55;4.80;;;;;;;30.01;35.99;101587.94;5111560;28;20047;-72
2022/07/19 09:19:31;;;;;;;10.77;5.82;;;;;;;30.15;34.85;101589.34;5084666;28;20019;-72
2022/07/19 09:22:05;;;;;;;11.05;4.90;;;;;;;30.27;34.41;101587.34;5112030;28;20107;-72
2022/07/19 09:24:33;;;;;;;5.90;4.95;;;;;;;30.34;35.39;101583.06;5102200;28;20024;-72
2022/07/19 09:27:05;;;;;;;8.52;5.05;;;;;;;30.45;32.52;101580.22;5091229;28;20035;-72
2022/07/19 09:29:32;;;;;;;9.80;5.35;;;;;;;30.63;32.88;101582.09;5100583;28;20028;-71
2022/07/19 09:32:02;;;;;;;7.53;4.80;;;;;;;30.70;31.99;101583.19;5104968;28;20051;-72
2022/07/19 09:34:30;;;;;;;6.47;4.45;;;;;;;30.80;33.04;101586.69;5109462;28;20047;-72
2022/07/19 09:37:27;;;;;;;10.63;4.40;;;;;;;30.87;33.79;101579.75;5083842;28;20024;-72
2022/07/19 09:39:58;;;;;;;6.88;4.75;;;;;;;31.05;32.47;101587.84;5100494;28;20506;-72
2022/07/19 09:42:44;;;;;;;8.82;5.32;;;;;;;31.14;34.47;101578.00;5105078;28;20051;-71
2022/07/19 09:45:11;;;;;;;8.98;5.10;;;;;;;31.23;31.99;101577.09;5086236;28;20081;-72
2022/07/19 09:47:47;;;;;;;8.43;5.32;;;;;;;31.42;32.13;101576.94;5105931;28;20022;-72
2022/07/19 09:50:17;;;;;;;9.70;5.05;;;;;;;31.48;34.31;101567.41;5086214;28;20094;-71
2022/07/19 09:52:44;;;;;;;7.78;5.30;;;;;;;31.51;32.88;101572.50;5094260;28;20024;-70
2022/07/19 09:55:11;;;;;;;9.05;5.30;;;;;;;31.73;31.71;101564.94;5090337;28;20113;-71
2022/07/19 09:57:41;;;;;;;9.30;4.45;;;;;;;31.77;31.77;101567.13;5111431;28;20030;-72
2022/07/19 10:00:08;;;;;;;8.18;4.68;;;;;;;31.82;30.53;101572.03;5096384;28;20410;-72
2022/07/19 10:02:36;;;;;;;7.22;4.93;;;;;;;32.04;32.23;101568.03;5111493;28;20032;-73
2022/07/19 10:05:03;;;;;;;6.75;4.47;;;;;;;31.98;30.36;101561.41;5091672;28;20024;-72
2022/07/19 10:07:28;;;;;;;7.03;4.93;;;;;;;32.13;29.92;101559.81;5099362;28;20042;-72
2022/07/19 10:09:54;;;;;;;6.68;4.40;;;;;;;32.31;28.69;101562.47;5107966;28;20027;-71
2022/07/19 10:12:21;;;;;;;7.55;4.18;;;;;;;32.36;29.08;101568.22;5110985;28;20383;-72
2022/07/19 10:14:46;;;;;;;6.32;5.15;;;;;;;32.45;31.23;101571.84;5111756;28;20028;-72
2022/07/19 10:17:35;;;;;;;11.10;4.43;;;;;;;32.52;29.47;101561.22;5096967;28;20032;-71
2022/07/19 10:20:01;;;;;;;6.00;4.45;;;;;;;32.63;28.52;101558.22;5111036;28;20471;-72
2022/07/19 10:22:27;;;;;;;10.70;4.32;;;;;;;32.80;30.40;101554.59;5099735;28;20028;-72
2022/07/19 10:24:54;;;;;;;9.48;4.88;;;;;;;32.84;28.77;101557.81;5105929;28;20024;-72
2022/07/19 10:27:26;;;;;;;9.02;4.70;;;;;;;32.98;29.27;101548.25;5086832;28;20032;-71
2022/07/19 10:30:12;;;;;;;6.22;4.40;;;;;;;33.10;30.34;101550.47;5090640;28;20144;-72
2022/07/19 10:32:39;;;;;;;7.20;4.38;;;;;;;33.24;27.22;101546.25;5107815;28;20027;-72
2022/07/19 10:35:20;;;;;;;10.57;4.40;;;;;;;33.30;28.57;101540.19;5110583;28;20039;-72
2022/07/19 10:37:48;;;;;;;8.05;4.40;;;;;;;33.40;27.71;101549.97;5111322;28;20489;-72
2022/07/19 10:40:44;;;;;;;11.02;4.55;;;;;;;33.58;29.91;101531.75;5110890;28;20051;-72
2022/07/19 10:43:11;;;;;;;8.52;4.30;;;;;;;33.86;28.58;101528.69;5111166;28;20016;-72
2022/07/19 10:45:42;;;;;;;7.97;4.30;;;;;;;33.97;27.17;101529.13;5111554;28;20031;-72
2022/07/19 10:48:10;;;;;;;6.85;4.07;;;;;;;34.10;25.64;101523.22;5110274;28;20019;-72
2022/07/19 10:50:52;;;;;;;13.98;4.68;;;;;;;34.19;27.12;101522.19;5111398;28;20526;-72
2022/07/19 10:53:39;;;;;;;8.18;3.97;;;;;;;34.37;26.69;101523.78;5111325;28;20031;-72
2022/07/19 10:56:30;;;;;;;9.63;4.13;;;;;;;34.49;26.74;101522.41;5110380;28;20047;-72
2022/07/19 10:59:05;;;;;;;5.63;3.72;;;;;;;34.53;25.25;101514.78;5083829;28;20027;-72
2022/07/19 11:01:33;;;;;;;13.25;4.22;;;;;;;34.59;24.25;101514.91;5103179;28;20020;-72
2022/07/19 11:04:23;;;;;;;6.05;4.07;;;;;;;34.72;25.47;101515.19;5111012;28;20031;-72
2022/07/19 11:06:50;;;;;;;4.63;3.80;;;;;;;34.87;24.29;101501.72;5111078;28;20111;-72
2022/07/19 11:09:16;;;;;;;8.95;3.55;;;;;;;35.01;25.50;101508.22;5110494;28;20023;-72
2022/07/19 11:11:41;;;;;;;8.80;3.30;;;;;;;35.21;26.18;101497.78;5111286;28;20382;-72
2022/07/19 11:14:06;;;;;;;7.95;3.97;;;;;;;35.32;22.54;101493.81;5110783;28;20463;-72
2022/07/19 11:16:31;;;;;;;11.07;4.10;;;;;;;35.42;24.31;101495.22;5114166;28;20477;-72
2022/07/19 11:19:10;;;;;;;7.13;3.90;;;;;;;35.49;24.47;101489.91;5114654;27;20436;-72